Time,TemperatureF,DewpointF,PressureIn,WindDirection,WindDirectionDegrees,WindSpeedMPH,WindSpeedGustMPH,Humidity,HourlyPrecipIn,Conditions,Clouds,dailyrainin,SolarRadiationWatts/m^2,SoftwareType,DateUTC
2013-12-18 00:07:00,21.8,12.0,30.17,SE,133,0.0,-999.0,66,-99.99,,,0.00,0,weatherlink.com 1.10,2013-12-18 06:07:00,
2013-12-18 00:22:00,21.4,12.0,30.16,SE,133,0.0,-999.0,67,-99.99,,,0.00,0,weatherlink.com 1.10,2013-12-18 06:22:00,
2013-12-18 00:37:00,21.9,12.0,30.16,SE,133,0.0,-999.0,67,-99.99,,,0.00,0,weatherlink.com 1.10,2013-12-18 06:37:00,
2013-12-18 00:52:00,21.6,12.0,30.14,SE,133,0.0,-999.0,67,-99.99,,,0.00,0,weatherlink.com 1.10,2013-12-18 06:52:00,
2013-12-18 01:07:00,21.4,12.0,30.14,SE,133,0.0,-999.0,68,-99.99,,,0.00,0,weatherlink.com 1.10,2013-12-18 07:07:00,
2013-12-18 01:22:00,21.4,13.0,30.13,SE,133,0.0,-999.0,69,-99.99,,,0.00,0,weatherlink.com 1.10,2013-12-18 07:22:00,
2013-12-18 01:37:00,21.0,12.0,30.13,SE,133,0.0,-999.0,69,-99.99,,,0.00,0,weatherlink.com 1.10,2013-12-18 07:37:00,
2013-12-18 01:52:00,19.7,12.0,30.13,SE,133,0.0,-999.0,72,-99.99,,,0.00,0,weatherlink.com 1.10,2013-12-18 07:52:00,
2013-12-18 02:07:00,19.9,12.0,30.12,SE,133,0.0,-999.0,72,-99.99,,,0.00,0,weatherlink.com 1.10,2013-12-18 08:07:00,
2013-12-18 02:22:00,19.5,12.0,30.11,SE,133,0.0,-999.0,73,-99.99,,,0.00,0,weatherlink.com 1.10,2013-12-18 08:22:00,
2013-12-18 02:37:00,19.9,13.0,30.10,SE,133,0.0,-999.0,73,-99.99,,,0.00,0,weatherlink.com 1.10,2013-12-18 08:37:00,
2013-12-18 02:52:00,20.3,13.0,30.10,SE,133,0.0,-999.0,73,-99.99,,,0.00,0,weatherlink.com 1.10,2013-12-18 08:52:00,
2013-12-18 03:22:00,21.4,14.0,30.08,NW,315,0.0,-999.0,72,-99.99,,,0.00,0,weatherlink.com 1.10,2013-12-18 09:22:00,
2013-12-18 03:37:00,21.8,14.0,30.07,NW,307,0.0,-999.0,71,-99.99,,,0.00,0,weatherlink.com 1.10,2013-12-18 09:37:00,
2013-12-18 03:52:00,21.8,13.0,30.07,North,350,0.0,-999.0,70,-99.99,,,0.00,0,weatherlink.com 1.10,2013-12-18 09:52:00,
2013-12-18 04:07:00,21.9,14.0,30.07,North,349,0.0,-999.0,70,-99.99,,,0.00,0,weatherlink.com 1.10,2013-12-18 10:07:00,
2013-12-18 04:22:00,22.2,13.0,30.07,North,349,0.0,-999.0,69,-99.99,,,0.00,0,weatherlink.com 1.10,2013-12-18 10:22:00,
2013-12-18 04:37:00,22.2,14.0,30.05,North,349,1.0,-999.0,70,-99.99,,,0.00,0,weatherlink.com 1.10,2013-12-18 10:37:00,
2013-12-18 04:52:00,23.5,14.0,30.03,North,355,0.0,-999.0,68,-99.99,,,0.00,0,weatherlink.com 1.10,2013-12-18 10:52:00,
2013-12-18 05:08:00,23.9,15.0,30.02,NNW,348,0.0,-999.0,68,-99.99,,,0.00,0,weatherlink.com 1.10,2013-12-18 11:08:00,
2013-12-18 05:23:00,23.3,14.0,30.01,NW,316,0.0,-999.0,68,-99.99,,,0.00,0,weatherlink.com 1.10,2013-12-18 11:23:00,
2013-12-18 05:38:00,22.7,15.0,30.00,WNW,303,0.0,-999.0,71,-99.99,,,0.00,0,weatherlink.com 1.10,2013-12-18 11:38:00,
2013-12-18 05:53:00,21.9,14.0,29.99,NW,306,1.0,-999.0,72,-99.99,,,0.00,0,weatherlink.com 1.10,2013-12-18 11:53:00,
2013-12-18 06:08:00,25.4,15.0,29.99,North,355,9.0,-999.0,66,-99.99,,,0.00,0,weatherlink.com 1.10,2013-12-18 12:08:00,
2013-12-18 06:23:00,27.0,16.0,29.97,North,11,5.0,-999.0,63,-99.99,,,0.00,0,weatherlink.com 1.10,2013-12-18 12:23:00,
2013-12-18 06:38:00,27.9,17.0,29.96,NNE,13,7.0,-999.0,63,-99.99,,,0.00,0,weatherlink.com 1.10,2013-12-18 12:38:00,
2013-12-18 06:53:00,29.1,18.0,29.95,North,5,9.0,-999.0,63,-99.99,,,0.00,0,weatherlink.com 1.10,2013-12-18 12:53:00,
2013-12-18 07:08:00,30.4,19.0,29.94,North,5,5.0,-999.0,63,-99.99,,,0.00,0,weatherlink.com 1.10,2013-12-18 13:08:00,
2013-12-18 07:23:00,32.9,20.0,29.93,NNE,23,11.0,-999.0,60,-99.99,,,0.00,0,weatherlink.com 1.10,2013-12-18 13:23:00,
2013-12-18 07:38:00,34.1,21.0,29.92,NNE,32,14.0,-999.0,59,-99.99,,,0.00,0,weatherlink.com 1.10,2013-12-18 13:38:00,
2013-12-18 07:53:00,34.3,22.0,29.91,NNE,30,10.0,-999.0,60,-99.99,,,0.00,11,weatherlink.com 1.10,2013-12-18 13:53:00,
2013-12-18 08:08:00,34.1,22.0,29.90,North,5,4.0,-999.0,61,-99.99,,,0.00,18,weatherlink.com 1.10,2013-12-18 14:08:00,
2013-12-18 08:23:00,34.9,23.0,29.90,NNE,25,9.0,-999.0,61,-99.99,,,0.00,28,weatherlink.com 1.10,2013-12-18 14:23:00,
2013-12-18 08:38:00,36.0,24.0,29.89,NNE,19,11.0,-999.0,61,-99.99,,,0.00,28,weatherlink.com 1.10,2013-12-18 14:38:00,
2013-12-18 08:53:00,37.3,24.0,29.88,NNE,20,12.0,-999.0,59,-99.99,,,0.00,74,weatherlink.com 1.10,2013-12-18 14:53:00,
2013-12-18 09:08:00,38.8,25.0,29.87,North,5,13.0,-999.0,58,-99.99,,,0.00,121,weatherlink.com 1.10,2013-12-18 15:08:00,
2013-12-18 09:23:00,39.9,25.0,29.86,NNE,13,11.0,-999.0,56,-99.99,,,0.00,104,weatherlink.com 1.10,2013-12-18 15:23:00,
2013-12-18 09:38:00,41.1,25.0,29.86,North,11,11.0,-999.0,54,-99.99,,,0.00,179,weatherlink.com 1.10,2013-12-18 15:38:00,
2013-12-18 09:53:00,41.6,25.0,29.85,NNE,19,7.0,-999.0,52,-99.99,,,0.00,200,weatherlink.com 1.10,2013-12-18 15:53:00,
2013-12-18 10:08:00,43.1,25.0,29.85,NNW,327,13.0,-999.0,50,-99.99,,,0.00,327,weatherlink.com 1.10,2013-12-18 16:08:00,
2013-12-18 10:23:00,44.5,26.0,29.84,NNE,29,4.0,-999.0,48,-99.99,,,0.00,429,weatherlink.com 1.10,2013-12-18 16:23:00,
2013-12-18 10:38:00,44.3,26.0,29.83,NE,47,13.0,-999.0,49,-99.99,,,0.00,371,weatherlink.com 1.10,2013-12-18 16:38:00,
2013-12-18 10:54:00,45.7,27.0,29.83,NNE,24,10.0,-999.0,48,-99.99,,,0.00,390,weatherlink.com 1.10,2013-12-18 16:54:00,
2013-12-18 11:09:00,47.1,27.0,29.81,NE,51,9.0,-999.0,46,-99.99,,,0.00,343,weatherlink.com 1.10,2013-12-18 17:09:00,
2013-12-18 11:24:00,47.4,27.0,29.81,ENE,57,5.0,-999.0,46,-99.99,,,0.00,267,weatherlink.com 1.10,2013-12-18 17:24:00,
2013-12-18 11:39:00,47.9,27.0,29.80,NNE,21,6.0,-999.0,45,-99.99,,,0.00,320,weatherlink.com 1.10,2013-12-18 17:39:00,
2013-12-18 11:54:00,48.5,28.0,29.79,ENE,73,4.0,-999.0,45,-99.99,,,0.00,165,weatherlink.com 1.10,2013-12-18 17:54:00,
2013-12-18 12:09:00,48.3,28.0,29.78,NNE,30,13.0,-999.0,46,-99.99,,,0.00,160,weatherlink.com 1.10,2013-12-18 18:09:00,
2013-12-18 12:24:00,48.3,28.0,29.77,North,5,12.0,-999.0,46,-99.99,,,0.00,178,weatherlink.com 1.10,2013-12-18 18:24:00,
2013-12-18 12:39:00,49.1,29.0,29.76,NNE,24,6.0,-999.0,46,-99.99,,,0.00,160,weatherlink.com 1.10,2013-12-18 18:39:00,
2013-12-18 12:54:00,49.2,30.0,29.75,NNE,30,8.0,-999.0,47,-99.99,,,0.00,142,weatherlink.com 1.10,2013-12-18 18:54:00,
2013-12-18 13:09:00,49.8,30.0,29.73,NNE,32,6.0,-999.0,46,-99.99,,,0.00,144,weatherlink.com 1.10,2013-12-18 19:09:00,
2013-12-18 13:24:00,50.8,30.0,29.73,North,5,8.0,-999.0,45,-99.99,,,0.00,134,weatherlink.com 1.10,2013-12-18 19:24:00,
2013-12-18 13:39:00,51.1,30.0,29.72,NE,43,11.0,-999.0,45,-99.99,,,0.00,130,weatherlink.com 1.10,2013-12-18 19:39:00,
2013-12-18 13:54:00,51.1,30.0,29.72,NNE,22,9.0,-999.0,45,-99.99,,,0.00,113,weatherlink.com 1.10,2013-12-18 19:54:00,
2013-12-18 14:09:00,51.1,30.0,29.72,NE,53,1.0,-999.0,45,-99.99,,,0.00,100,weatherlink.com 1.10,2013-12-18 20:09:00,
2013-12-18 14:24:00,51.3,30.0,29.73,NE,37,4.0,-999.0,45,-99.99,,,0.00,93,weatherlink.com 1.10,2013-12-18 20:24:00,
2013-12-18 14:39:00,51.1,31.0,29.73,NNE,12,7.0,-999.0,46,-99.99,,,0.00,81,weatherlink.com 1.10,2013-12-18 20:39:00,
2013-12-18 14:54:00,51.0,31.0,29.73,NNE,16,0.0,-999.0,46,-99.99,,,0.00,72,weatherlink.com 1.10,2013-12-18 20:54:00,
2013-12-18 15:09:00,50.8,31.0,29.72,NNE,28,5.0,-999.0,47,-99.99,,,0.00,65,weatherlink.com 1.10,2013-12-18 21:09:00,
2013-12-18 15:24:00,50.7,31.0,29.71,NE,38,0.0,-999.0,47,-99.99,,,0.00,63,weatherlink.com 1.10,2013-12-18 21:24:00,
2013-12-18 15:39:00,50.5,31.0,29.71,NE,38,0.0,-999.0,48,-99.99,,,0.00,56,weatherlink.com 1.10,2013-12-18 21:39:00,
2013-12-18 15:54:00,50.4,31.0,29.72,NE,38,0.0,-999.0,48,-99.99,,,0.00,37,weatherlink.com 1.10,2013-12-18 21:54:00,
2013-12-18 16:09:00,50.1,31.0,29.72,NE,38,0.0,-999.0,49,-99.99,,,0.00,32,weatherlink.com 1.10,2013-12-18 22:09:00,
2013-12-18 16:24:00,49.8,31.0,29.72,NE,38,0.0,-999.0,49,-99.99,,,0.00,21,weatherlink.com 1.10,2013-12-18 22:24:00,
2013-12-18 16:39:00,49.2,31.0,29.71,NE,38,0.0,-999.0,50,-99.99,,,0.00,7,weatherlink.com 1.10,2013-12-18 22:39:00,
2013-12-18 16:54:00,48.0,31.0,29.72,NE,38,0.0,-999.0,52,-99.99,,,0.00,0,weatherlink.com 1.10,2013-12-18 22:54:00,
2013-12-18 17:09:00,46.5,30.0,29.72,NE,38,0.0,-999.0,54,-99.99,,,0.00,0,weatherlink.com 1.10,2013-12-18 23:09:00,
2013-12-18 17:24:00,46.1,31.0,29.72,NE,38,0.0,-999.0,56,-99.99,,,0.00,0,weatherlink.com 1.10,2013-12-18 23:24:00,
2013-12-18 17:39:00,44.9,31.0,29.72,NE,38,0.0,-999.0,58,-99.99,,,0.00,0,weatherlink.com 1.10,2013-12-18 23:39:00,
2013-12-18 17:54:00,43.1,30.0,29.72,NE,38,0.0,-999.0,61,-99.99,,,0.00,0,weatherlink.com 1.10,2013-12-18 23:54:00,
2013-12-18 18:09:00,42.3,30.0,29.73,NE,38,0.0,-999.0,63,-99.99,,,0.00,0,weatherlink.com 1.10,2013-12-19 00:09:00,
2013-12-18 18:24:00,41.3,30.0,29.72,NE,38,0.0,-999.0,65,-99.99,,,0.00,0,weatherlink.com 1.10,2013-12-19 00:24:00,
2013-12-18 18:39:00,41.1,30.0,29.72,NE,38,0.0,-999.0,66,-99.99,,,0.00,0,weatherlink.com 1.10,2013-12-19 00:39:00,
2013-12-18 18:54:00,40.8,31.0,29.72,NE,38,0.0,-999.0,67,-99.99,,,0.00,0,weatherlink.com 1.10,2013-12-19 00:54:00,
2013-12-18 19:09:00,40.1,30.0,29.72,NE,38,0.0,-999.0,68,-99.99,,,0.00,0,weatherlink.com 1.10,2013-12-19 01:09:00,
2013-12-18 19:24:00,40.3,31.0,29.72,NE,38,0.0,-999.0,69,-99.99,,,0.00,0,weatherlink.com 1.10,2013-12-19 01:24:00,
2013-12-18 19:39:00,41.1,31.0,29.72,NE,38,0.0,-999.0,67,-99.99,,,0.00,0,weatherlink.com 1.10,2013-12-19 01:39:00,
2013-12-18 19:54:00,40.6,30.0,29.72,NE,38,0.0,-999.0,67,-99.99,,,0.00,0,weatherlink.com 1.10,2013-12-19 01:54:00,
2013-12-18 20:09:00,39.8,30.0,29.72,NE,38,0.0,-999.0,69,-99.99,,,0.00,0,weatherlink.com 1.10,2013-12-19 02:09:00,
2013-12-18 20:24:00,40.2,31.0,29.71,NE,38,0.0,-999.0,69,-99.99,,,0.00,0,weatherlink.com 1.10,2013-12-19 02:24:00,
2013-12-18 20:39:00,39.8,31.0,29.72,NE,38,0.0,-999.0,70,-99.99,,,0.00,0,weatherlink.com 1.10,2013-12-19 02:39:00,
2013-12-18 20:54:00,39.1,30.0,29.72,NE,38,0.0,-999.0,71,-99.99,,,0.00,0,weatherlink.com 1.10,2013-12-19 02:54:00,
2013-12-18 21:09:00,39.1,31.0,29.72,NE,38,0.0,-999.0,72,-99.99,,,0.00,0,weatherlink.com 1.10,2013-12-19 03:09:00,
2013-12-18 21:24:00,38.9,31.0,29.72,NE,38,0.0,-999.0,72,-99.99,,,0.00,0,weatherlink.com 1.10,2013-12-19 03:24:00,
2013-12-18 21:39:00,38.8,30.0,29.72,NE,38,0.0,-999.0,72,-99.99,,,0.00,0,weatherlink.com 1.10,2013-12-19 03:39:00,
2013-12-18 21:54:00,37.9,30.0,29.72,NE,38,0.0,-999.0,73,-99.99,,,0.00,0,weatherlink.com 1.10,2013-12-19 03:54:00,
2013-12-18 22:09:00,36.9,30.0,29.73,NE,38,0.0,-999.0,75,-99.99,,,0.00,0,weatherlink.com 1.10,2013-12-19 04:09:00,
2013-12-18 22:24:00,36.6,30.0,29.72,NE,38,0.0,-999.0,77,-99.99,,,0.00,0,weatherlink.com 1.10,2013-12-19 04:24:00,
2013-12-18 22:39:00,36.6,30.0,29.72,NE,38,0.0,-999.0,78,-99.99,,,0.00,0,weatherlink.com 1.10,2013-12-19 04:39:00,
2013-12-18 22:54:00,36.5,30.0,29.73,NE,38,0.0,-999.0,78,-99.99,,,0.00,0,weatherlink.com 1.10,2013-12-19 04:54:00,
2013-12-18 23:09:00,36.3,30.0,29.73,NE,38,0.0,-999.0,78,-99.99,,,0.00,0,weatherlink.com 1.10,2013-12-19 05:09:00,
2013-12-18 23:24:00,36.3,30.0,29.73,NE,38,0.0,-999.0,79,-99.99,,,0.00,0,weatherlink.com 1.10,2013-12-19 05:24:00,
2013-12-18 23:39:00,36.2,30.0,29.73,NE,38,0.0,-999.0,78,-99.99,,,0.00,0,weatherlink.com 1.10,2013-12-19 05:39:00,
2013-12-18 23:54:00,35.6,30.0,29.72,NE,38,0.0,-999.0,79,-99.99,,,0.00,0,weatherlink.com 1.10,2013-12-19 05:54:00,